Time;durP1;ratioP1;P1;durP2;ratioP2;P2;SDS_P1;SDS_P2;PMS_P1;PMS_P2;Temp;Humidity;BMP_temperature;BMP_pressure;BME280_temperature;BME280_humidity;BME280_pressure;Samples;Min_cycle;Max_cycle;Signal;HPM_P1;HPM_P2
2022/04/11 00:00:47;;;;;;;3.50;3.20;;;;;;;9.89;66.04;94169.72;5099787;28;20178;-88
2022/04/11 00:03:14;;;;;;;5.13;3.20;;;;;;;9.89;65.95;94169.72;5093307;28;20182;-85
2022/04/11 00:05:40;;;;;;;3.73;3.20;;;;;;;9.89;66.02;94177.38;5093181;28;20182;-83
2022/04/11 00:08:07;;;;;;;4.60;3.53;;;;;;;9.86;65.84;94170.00;5093119;28;20186;-85
2022/04/11 00:10:34;;;;;;;3.80;3.50;;;;;;;9.84;66.09;94173.66;5105319;28;20794;-86
2022/04/11 00:13:02;;;;;;;3.60;3.20;;;;;;;9.87;66.02;94184.38;5108409;28;20182;-84
2022/04/11 00:15:29;;;;;;;5.00;3.30;;;;;;;9.89;65.46;94186.81;5121351;28;20621;-85
2022/04/11 00:17:57;;;;;;;4.67;3.30;;;;;;;9.81;65.55;94184.97;5121837;28;20189;-87
2022/04/11 00:20:24;;;;;;;3.77;3.47;;;;;;;9.87;65.81;94186.94;5113841;28;20197;-83
2022/04/11 00:22:51;;;;;;;4.43;3.30;;;;;;;9.79;65.89;94187.66;5117034;28;20604;-81
2022/04/11 00:25:18;;;;;;;3.30;3.00;;;;;;;9.80;65.80;94186.72;5125630;28;20199;-77
2022/04/11 00:27:44;;;;;;;5.43;3.43;;;;;;;9.82;65.90;94203.66;5124269;28;20207;-86
2022/04/11 00:30:12;;;;;;;5.13;3.27;;;;;;;9.85;65.66;94193.16;5126338;28;20215;-84
2022/04/11 00:32:40;;;;;;;8.20;4.83;;;;;;;9.87;65.24;94204.81;5124635;28;20240;-86
2022/04/11 00:35:09;;;;;;;7.03;5.30;;;;;;;9.87;65.13;94212.47;5123307;28;20255;-86
2022/04/11 00:37:37;;;;;;;7.40;5.20;;;;;;;9.87;65.25;94216.78;5119622;28;20188;-70
2022/04/11 00:40:05;;;;;;;6.27;4.57;;;;;;;9.86;65.09;94223.63;5116816;28;20212;-83
2022/04/11 00:42:32;;;;;;;7.03;4.67;;;;;;;9.85;64.96;94222.03;5118070;28;20212;-87
2022/04/11 00:45:00;;;;;;;4.67;4.20;;;;;;;9.78;65.07;94221.81;5117136;28;20199;-73
2022/04/11 00:47:27;;;;;;;5.03;4.20;;;;;;;9.87;64.84;94243.13;5107105;28;20197;-85
2022/04/11 00:49:56;;;;;;;5.03;4.50;;;;;;;9.89;64.56;94235.31;5120828;28;20182;-86
2022/04/11 00:52:25;;;;;;;4.23;3.83;;;;;;;9.88;64.50;94237.06;5097011;28;20723;-85
2022/04/11 00:54:52;;;;;;;3.60;3.30;;;;;;;9.88;64.37;94231.94;5100779;28;20190;-82
2022/04/11 00:57:19;;;;;;;4.30;3.40;;;;;;;9.91;64.06;94244.44;5100182;28;20197;-79
2022/04/11 00:59:46;;;;;;;3.73;3.10;;;;;;;9.92;64.09;94250.34;5100258;28;20197;-87
2022/04/11 01:02:13;;;;;;;4.33;3.27;;;;;;;9.94;63.71;94258.69;5116214;28;20726;-81
2022/04/11 01:04:41;;;;;;;4.97;3.37;;;;;;;9.93;63.56;94259.59;5116868;28;20199;-86
2022/04/11 01:07:08;;;;;;;4.17;2.73;;;;;;;9.93;63.62;94257.88;5115883;28;20280;-82
2022/04/11 01:09:37;;;;;;;4.97;3.37;;;;;;;9.88;63.34;94243.91;5116521;28;20189;-83
2022/04/11 01:12:05;;;;;;;4.97;3.40;;;;;;;9.96;62.98;94265.22;5114717;28;20785;-82
2022/04/11 01:14:31;;;;;;;5.20;3.87;;;;;;;9.98;62.80;94262.56;5111608;28;20181;-82
2022/04/11 01:16:59;;;;;;;4.33;3.83;;;;;;;9.99;62.66;94280.28;5103156;28;20201;-83
2022/04/11 01:19:27;;;;;;;4.73;3.60;;;;;;;9.98;62.22;94280.44;5095585;28;20189;-85
2022/04/11 01:21:56;;;;;;;6.27;4.30;;;;;;;9.96;62.25;94282.31;5093939;28;20190;-80
2022/04/11 01:24:23;;;;;;;4.53;3.90;;;;;;;9.97;62.04;94289.03;5094240;28;20185;-81
2022/04/11 01:26:51;;;;;;;3.97;3.57;;;;;;;9.94;62.18;94290.13;5094458;28;20198;-81
2022/04/11 01:29:18;;;;;;;4.80;3.87;;;;;;;9.91;61.88;94279.38;5094437;28;20709;-76
2022/04/11 01:31:45;;;;;;;3.60;3.27;;;;;;;9.97;61.88;94297.50;5100970;28;20262;-77
2022/04/11 01:34:12;;;;;;;3.70;3.33;;;;;;;9.97;61.96;94300.06;5113499;28;20224;-85
2022/04/11 01:36:39;;;;;;;3.80;3.40;;;;;;;9.96;61.99;94298.44;5113495;28;20196;-85
2022/04/11 01:39:08;;;;;;;3.53;3.23;;;;;;;9.96;61.85;94301.00;5113646;28;20193;-84
2022/04/11 01:41:35;;;;;;;2.97;2.73;;;;;;;9.98;61.82;94314.44;5114485;28;20617;-86
2022/04/11 01:44:02;;;;;;;7.57;3.60;;;;;;;9.98;61.69;94308.53;5113681;28;20234;-83
2022/04/11 01:46:29;;;;;;;4.33;3.03;;;;;;;9.95;61.63;94311.34;5102799;28;20197;-86
2022/04/11 01:48:55;;;;;;;4.87;3.13;;;;;;;9.99;61.75;94312.69;5094927;28;20208;-82
2022/04/11 01:51:22;;;;;;;5.23;3.40;;;;;;;10.00;61.50;94317.63;5097621;28;20221;-85
2022/04/11 01:53:49;;;;;;;4.27;3.27;;;;;;;10.01;61.35;94328.66;5100644;28;20186;-78
2022/04/11 01:56:17;;;;;;;3.33;3.03;;;;;;;10.03;61.35;94329.34;5114686;28;20169;-82
2022/04/11 01:58:44;;;;;;;3.70;3.00;;;;;;;10.03;61.24;94327.56;5096738;28;20600;-86
2022/04/11 02:01:11;;;;;;;4.43;3.00;;;;;;;10.04;61.13;94329.19;5095501;28;20189;-86
2022/04/11 02:03:38;;;;;;;3.30;3.00;;;;;;;10.04;61.19;94341.16;5093173;28;20573;-85
2022/04/11 02:06:05;;;;;;;4.50;2.77;;;;;;;10.04;60.98;94346.25;5094007;28;20189;-81
2022/04/11 02:08:32;;;;;;;3.87;3.03;;;;;;;10.05;60.95;94338.44;5094323;28;20723;-82
2022/04/11 02:10:59;;;;;;;3.17;2.80;;;;;;;10.07;60.97;94355.41;5094274;28;20608;-84
2022/04/11 02:13:27;;;;;;;3.27;2.80;;;;;;;10.09;60.76;94361.16;5098617;28;20297;-83
2022/04/11 02:15:53;;;;;;;4.90;2.97;;;;;;;10.09;60.54;94356.06;5100196;28;20186;-85
2022/04/11 02:18:20;;;;;;;5.40;2.90;;;;;;;10.08;60.54;94357.81;5097119;28;20190;-79
2022/04/11 02:20:47;;;;;;;3.37;3.00;;;;;;;10.11;60.59;94364.41;5102491;28;20189;-85
2022/04/11 02:23:14;;;;;;;4.60;2.93;;;;;;;10.13;60.46;94370.94;5117083;28;20624;-85
2022/04/11 02:25:41;;;;;;;4.13;3.03;;;;;;;10.12;60.60;94377.00;5113370;28;20185;-84
2022/04/11 02:28:08;;;;;;;3.73;2.97;;;;;;;10.15;60.59;94376.75;5112754;28;20189;-84
2022/04/11 02:30:36;;;;;;;6.00;3.17;;;;;;;10.14;60.47;94385.31;5113636;28;20250;-84
2022/04/11 02:33:03;;;;;;;3.30;2.70;;;;;;;10.16;60.43;94392.88;5113756;28;20227;-81
2022/04/11 02:35:30;;;;;;;3.97;3.17;;;;;;;10.17;60.38;94392.72;5114454;28;20253;-83
2022/04/11 02:37:57;;;;;;;2.90;2.60;;;;;;;10.18;60.43;94396.06;5114315;28;20202;-84
2022/04/11 02:40:24;;;;;;;3.87;2.90;;;;;;;10.18;60.30;94394.31;5114149;28;20177;-84
2022/04/11 02:42:50;;;;;;;4.43;2.93;;;;;;;10.18;60.34;94407.09;5119804;28;20196;-73
2022/04/11 02:45:17;;;;;;;2.70;2.50;;;;;;;10.18;60.35;94409.66;5125918;28;20200;-81
2022/04/11 02:47:46;;;;;;;4.70;2.70;;;;;;;10.20;59.88;94414.63;5116552;28;20189;-84
2022/04/11 02:50:13;;;;;;;4.07;2.97;;;;;;;10.19;60.26;94416.41;5122096;28;20226;-85
2022/04/11 02:52:40;;;;;;;4.63;3.10;;;;;;;10.21;60.17;94418.78;5124909;28;20225;-83
2022/04/11 02:55:08;;;;;;;3.97;3.37;;;;;;;10.19;60.12;94418.94;5118870;28;20554;-85
2022/04/11 02:57:36;;;;;;;4.23;3.33;;;;;;;10.19;60.22;94428.34;5117944;28;20189;-86
2022/04/11 03:00:15;;;;;;;2.97;2.77;;;;;;;10.20;60.35;94427.41;5116975;28;20216;-83
2022/04/11 03:02:42;;;;;;;4.23;2.73;;;;;;;10.19;60.35;94430.88;5112678;28;20817;-86
2022/04/11 03:05:10;;;;;;;5.10;2.53;;;;;;;10.20;60.37;94437.63;5113438;28;20269;-84
2022/04/11 03:07:37;;;;;;;2.83;2.63;;;;;;;10.19;60.42;94434.28;5113307;28;20200;-83
2022/04/11 03:10:05;;;;;;;3.57;2.83;;;;;;;10.23;60.47;94434.78;5112349;28;20189;-86
2022/04/11 03:12:33;;;;;;;6.73;2.83;;;;;;;10.17;60.48;94425.13;5111973;28;20232;-83
2022/04/11 03:15:00;;;;;;;4.53;2.73;;;;;;;10.22;60.56;94433.97;5111188;28;20280;-80
2022/04/11 03:17:27;;;;;;;6.93;3.17;;;;;;;10.23;60.46;94438.16;5112241;28;20200;-78
2022/04/11 03:19:54;;;;;;;3.10;2.80;;;;;;;10.23;60.69;94445.00;5112230;28;20188;-84
2022/04/11 03:22:22;;;;;;;3.33;2.67;;;;;;;10.17;60.93;94441.25;5112404;28;20188;-83
2022/04/11 03:24:49;;;;;;;3.00;2.70;;;;;;;10.25;60.70;94453.38;5112127;28;20196;-81
2022/04/11 03:27:16;;;;;;;4.93;2.63;;;;;;;10.24;60.74;94451.75;5113779;28;20188;-79
2022/04/11 03:29:43;;;;;;;6.27;3.17;;;;;;;10.23;60.69;94453.50;5111263;28;20182;-80
2022/04/11 03:32:09;;;;;;;3.90;3.50;;;;;;;10.24;60.96;94450.00;5093359;28;20221;-82
2022/04/11 03:34:36;;;;;;;4.23;3.83;;;;;;;10.23;60.97;94458.59;5092134;28;20287;-77
2022/04/11 03:37:04;;;;;;;5.80;4.07;;;;;;;10.26;60.83;94468.56;5091969;28;20216;-86
2022/04/11 03:39:32;;;;;;;4.80;4.37;;;;;;;10.25;60.72;94474.63;5091655;28;20243;-83
2022/04/11 03:41:59;;;;;;;4.03;3.70;;;;;;;10.23;60.88;94483.31;5091510;28;20650;-85
2022/04/11 03:44:25;;;;;;;4.37;3.87;;;;;;;10.23;60.89;94478.22;5100071;28;20192;-86
2022/04/11 03:46:52;;;;;;;6.20;4.27;;;;;;;10.22;61.09;94484.28;5111368;28;20189;-83
2022/04/11 03:49:19;;;;;;;4.90;4.40;;;;;;;10.19;60.79;94487.94;5111139;28;20246;-85
2022/04/11 03:51:46;;;;;;;6.20;3.93;;;;;;;10.20;60.92;94497.22;5111097;28;20668;-86
2022/04/11 03:54:13;;;;;;;4.37;3.77;;;;;;;10.18;60.85;94493.97;5113468;28;20193;-84
2022/04/11 03:56:41;;;;;;;6.40;3.90;;;;;;;10.18;60.93;94496.53;5112000;28;20181;-86
2022/04/11 03:59:08;;;;;;;4.67;3.63;;;;;;;10.18;60.77;94499.09;5109299;28;20249;-83
2022/04/11 04:01:35;;;;;;;4.63;3.67;;;;;;;10.18;60.59;94501.63;5090527;28;20201;-84
2022/04/11 04:04:02;;;;;;;5.67;3.77;;;;;;;10.18;60.54;94500.84;5090876;28;20193;-78
2022/04/11 04:06:29;;;;;;;6.03;4.10;;;;;;;10.20;60.48;94504.06;5090475;28;20731;-84
2022/04/11 04:08:56;;;;;;;5.40;3.20;;;;;;;10.19;60.28;94505.00;5106003;28;20189;-79
2022/04/11 04:11:23;;;;;;;5.50;3.37;;;;;;;10.20;60.24;94515.09;5111465;28;20204;-86
2022/04/11 04:13:51;;;;;;;3.87;3.47;;;;;;;10.20;60.02;94515.09;5116974;28;20683;-81
2022/04/11 04:16:18;;;;;;;6.17;3.40;;;;;;;10.20;59.88;94525.31;5111014;28;20211;-83
2022/04/11 04:18:45;;;;;;;4.60;3.57;;;;;;;10.19;59.89;94525.44;5110603;28;20195;-81
2022/04/11 04:21:12;;;;;;;3.80;3.10;;;;;;;10.22;59.59;94527.72;5100775;28;20659;-82
2022/04/11 04:23:38;;;;;;;4.57;3.60;;;;;;;10.20;59.41;94530.44;5102884;28;20196;-85
2022/04/11 04:26:06;;;;;;;4.67;3.53;;;;;;;10.20;59.27;94532.19;5110341;28;20189;-81
2022/04/11 04:28:32;;;;;;;4.13;3.20;;;;;;;10.18;59.36;94532.31;5111283;28;20200;-73
2022/04/11 04:31:01;;;;;;;5.63;3.70;;;;;;;10.20;59.51;94537.28;5109481;28;20191;-85
2022/04/11 04:33:30;;;;;;;5.30;3.20;;;;;;;10.23;59.38;94542.09;5110645;28;20216;-78
2022/04/11 04:35:57;;;;;;;4.53;2.80;;;;;;;10.23;59.10;94547.22;5110097;28;20193;-75
2022/04/11 04:38:24;;;;;;;3.70;3.07;;;;;;;10.24;59.09;94552.25;5109914;28;20189;-84
2022/04/11 04:40:51;;;;;;;4.97;3.30;;;;;;;10.25;59.01;94556.41;5094301;28;20316;-77
2022/04/11 04:43:17;;;;;;;3.63;2.90;;;;;;;10.29;58.94;94567.16;5090345;28;20615;-83
2022/04/11 04:45:45;;;;;;;4.83;3.30;;;;;;;10.29;58.74;94564.59;5089997;28;20193;-72
2022/04/11 04:48:13;;;;;;;4.80;3.33;;;;;;;10.31;58.84;94567.81;5090681;28;20197;-82
2022/04/11 04:50:41;;;;;;;7.40;4.03;;;;;;;10.34;58.40;94572.66;5094010;28;20194;-74
2022/04/11 04:53:07;;;;;;;5.33;3.53;;;;;;;10.39;58.59;94577.34;5103249;28;20235;-76
2022/04/11 04:55:34;;;;;;;6.47;3.63;;;;;;;10.40;58.50;94576.38;5113661;28;20628;-73
2022/04/11 04:58:01;;;;;;;4.07;3.17;;;;;;;10.42;58.38;94577.06;5114465;28;20267;-84
2022/04/11 05:00:28;;;;;;;6.70;4.10;;;;;;;10.47;58.15;94582.56;5107162;28;20214;-78
2022/04/11 05:02:55;;;;;;;3.90;3.53;;;;;;;10.53;57.86;94587.94;5114149;28;20241;-82
2022/04/11 05:05:23;;;;;;;7.57;4.93;;;;;;;10.62;57.71;94596.53;5116268;28;20660;-77
2022/04/11 05:07:50;;;;;;;5.43;4.70;;;;;;;10.71;57.42;94597.44;5116025;28;20263;-81
2022/04/11 05:10:17;;;;;;;5.60;4.60;;;;;;;10.82;57.11;94604.09;5116277;28;20181;-86
2022/04/11 05:12:45;;;;;;;6.03;4.40;;;;;;;10.83;56.78;94603.94;5116499;28;20209;-86
2022/04/11 05:15:13;;;;;;;4.90;4.50;;;;;;;10.92;56.55;94618.44;5101204;28;20566;-73
2022/04/11 05:17:40;;;;;;;4.77;4.23;;;;;;;10.97;56.54;94611.19;5112996;28;20553;-79
2022/04/11 05:20:09;;;;;;;5.47;3.87;;;;;;;11.06;56.40;94614.63;5112989;28;20197;-76
2022/04/11 05:22:37;;;;;;;4.70;3.70;;;;;;;11.14;56.39;94616.47;5113246;28;20270;-76
2022/04/11 05:25:06;;;;;;;5.43;4.00;;;;;;;11.22;56.27;94619.13;5114542;28;20197;-80
2022/04/11 05:27:32;;;;;;;4.00;3.70;;;;;;;11.28;55.96;94616.81;5113508;28;20181;-82
2022/04/11 05:29:59;;;;;;;7.67;4.33;;;;;;;11.38;55.84;94610.81;5110603;28;20918;-79
2022/04/11 05:32:26;;;;;;;6.07;2.40;;;;;;;11.62;83.10;94613.63;5109011;28;20212;-74
2022/04/11 05:34:53;;;;;;;5.70;3.60;;;;;;;12.12;95.26;94620.00;5113130;28;20225;-79
2022/04/11 05:37:19;;;;;;;9.27;3.20;;;;;;;12.36;84.74;94627.88;5109342;28;20181;-77
2022/04/11 05:39:48;;;;;;;4.30;3.53;;;;;;;12.48;77.34;94623.31;5112777;28;20185;-73
2022/04/11 05:42:14;;;;;;;4.60;3.30;;;;;;;12.54;72.23;94626.06;5113129;28;20185;-73
2022/04/11 05:44:41;;;;;;;4.50;3.20;;;;;;;12.60;68.35;94626.41;5107771;28;20190;-81
2022/04/11 05:47:08;;;;;;;4.63;3.03;;;;;;;12.73;77.47;94616.53;5112434;28;20216;-71
2022/04/11 05:49:37;;;;;;;4.73;3.47;;;;;;;13.20;91.79;94629.72;5112294;28;20196;-81
2022/04/11 05:52:04;;;;;;;8.33;3.87;;;;;;;13.42;84.08;94641.22;5112576;28;20195;-77
2022/04/11 05:54:31;;;;;;;7.57;3.20;;;;;;;13.33;76.89;94626.75;5112596;28;20224;-82
2022/04/11 05:56:59;;;;;;;6.63;3.53;;;;;;;13.41;71.03;94636.25;5110857;28;20188;-80
2022/04/11 05:59:28;;;;;;;6.37;3.53;;;;;;;13.34;66.45;94645.53;5107528;28;20188;-77
2022/04/11 06:01:55;;;;;;;5.77;4.03;;;;;;;13.29;64.04;94654.50;5107483;28;20197;-84
2022/04/11 06:04:51;;;;;;;6.07;3.67;;;;;;;13.18;61.32;94654.78;5110352;28;20196;-76
2022/04/11 06:07:20;;;;;;;5.47;3.50;;;;;;;13.05;59.08;94654.41;5112149;28;20193;-71
2022/04/11 06:09:48;;;;;;;5.60;4.00;;;;;;;13.02;58.25;94660.63;5110964;28;20185;-76
2022/04/11 06:12:17;;;;;;;5.47;4.03;;;;;;;12.98;57.28;94666.22;5110391;28;20185;-73
2022/04/11 06:14:44;;;;;;;5.03;3.37;;;;;;;12.92;56.43;94656.59;5105830;28;20240;-78
2022/04/11 06:17:10;;;;;;;6.90;3.77;;;;;;;12.89;55.46;94660.25;5108819;28;20208;-73
2022/04/11 06:19:37;;;;;;;8.53;3.80;;;;;;;12.88;54.73;94657.84;5110704;28;20288;-77
2022/04/11 06:22:04;;;;;;;3.30;3.00;;;;;;;12.87;54.37;94657.03;5111130;28;20197;-76
2022/04/11 06:24:31;;;;;;;4.47;3.60;;;;;;;12.88;54.09;94661.22;5105921;28;20250;-79
2022/04/11 06:26:58;;;;;;;4.50;3.37;;;;;;;12.90;53.51;94658.47;5108722;28;20193;-76
2022/04/11 06:29:26;;;;;;;9.30;3.53;;;;;;;12.93;53.13;94663.31;5107925;28;20659;-81
2022/04/11 06:31:53;;;;;;;7.10;3.97;;;;;;;12.98;52.86;94661.91;5107240;28;20204;-70
2022/04/11 06:34:20;;;;;;;7.10;4.17;;;;;;;13.06;52.62;94658.56;5104842;28;20221;-72
2022/04/11 06:36:46;;;;;;;4.67;3.77;;;;;;;13.22;52.36;94668.13;5108652;28;20718;-77
2022/04/11 06:39:13;;;;;;;5.27;4.30;;;;;;;13.39;52.02;94656.16;5108001;28;20251;-70
2022/04/11 06:41:40;;;;;;;5.17;3.87;;;;;;;13.57;51.83;94664.56;5108972;28;20185;-79
2022/04/11 06:44:07;;;;;;;4.43;3.50;;;;;;;13.72;51.78;94667.31;5106941;28;20188;-82
2022/04/11 06:46:36;;;;;;;7.43;3.80;;;;;;;13.87;51.28;94664.97;5108850;28;20201;-77
2022/04/11 06:49:02;;;;;;;4.40;3.57;;;;;;;14.23;51.98;94668.84;5108452;28;20196;-73
2022/04/11 06:51:29;;;;;;;5.57;3.00;;;;;;;14.77;51.81;94670.94;5107538;28;20197;-78
2022/04/11 06:53:56;;;;;;;3.27;2.90;;;;;;;15.19;51.19;94668.06;5108556;28;20224;-81
2022/04/11 06:56:23;;;;;;;4.63;3.00;;;;;;;15.53;50.63;94670.34;5108162;28;20271;-75
2022/04/11 06:58:50;;;;;;;4.53;3.10;;;;;;;15.85;49.68;94676.34;5105572;28;20193;-72
2022/04/11 07:01:16;;;;;;;5.90;3.03;;;;;;;16.39;49.13;94684.03;5109706;28;20671;-74
2022/04/11 07:03:45;;;;;;;3.10;2.80;;;;;;;17.12;48.94;94684.34;5109460;28;20192;-70
2022/04/11 07:06:11;;;;;;;4.17;2.40;;;;;;;17.96;48.04;94684.78;5109371;28;20193;-76
2022/04/11 07:08:38;;;;;;;4.00;2.70;;;;;;;18.76;46.76;94684.56;5107061;28;20279;-70
2022/04/11 07:11:06;;;;;;;2.67;2.47;;;;;;;19.45;45.09;94690.75;5111037;28;20187;-69
2022/04/11 07:13:34;;;;;;;3.10;2.30;;;;;;;20.13;43.60;94693.44;5113673;28;20625;-70
2022/04/11 07:16:02;;;;;;;2.73;2.47;;;;;;;20.85;42.46;94697.91;5118101;28;20655;-72
2022/04/11 07:18:29;;;;;;;2.03;1.90;;;;;;;21.60;40.92;94692.41;5114953;28;20207;-77
2022/04/11 07:20:58;;;;;;;2.90;2.27;;;;;;;22.38;39.37;94698.25;5109899;28;20189;-79
2022/04/11 07:23:25;;;;;;;3.40;2.33;;;;;;;23.16;38.28;94699.69;5108676;28;20281;-86
2022/04/11 07:25:52;;;;;;;4.25;2.70;;;;;;;23.86;37.15;94697.53;5110657;28;20189;-69
2022/04/11 07:28:18;;;;;;;3.78;2.17;;;;;;;24.41;36.21;94704.50;5109141;28;20181;-75
2022/04/11 07:30:45;;;;;;;3.47;2.90;;;;;;;24.62;35.66;94698.75;5108538;28;20300;-74
2022/04/11 07:33:12;;;;;;;3.22;2.70;;;;;;;24.56;35.58;94702.25;5102218;28;20224;-80
2022/04/11 07:35:39;;;;;;;6.25;3.00;;;;;;;24.67;34.35;94711.94;5108143;28;20193;-78
2022/04/11 07:38:07;;;;;;;3.13;2.78;;;;;;;24.95;32.77;94703.44;5108314;28;20193;-88
2022/04/11 07:40:34;;;;;;;2.85;2.47;;;;;;;25.31;32.30;94714.75;5108553;28;20189;-86
2022/04/11 07:43:01;;;;;;;4.03;2.83;;;;;;;25.69;31.86;94714.25;5107666;28;20204;-79
2022/04/11 07:45:29;;;;;;;5.65;2.60;;;;;;;26.01;31.34;94719.88;5108553;28;20220;-75
2022/04/11 07:47:55;;;;;;;3.80;2.50;;;;;;;26.20;31.14;94733.59;5109419;28;20211;-74
2022/04/11 07:50:22;;;;;;;3.97;2.33;;;;;;;26.40;30.27;94740.25;5111124;28;20548;-73
2022/04/11 07:52:49;;;;;;;3.03;2.47;;;;;;;26.60;30.14;94734.59;5108336;28;20209;-69
2022/04/11 07:55:17;;;;;;;2.60;2.30;;;;;;;26.91;29.23;94734.06;5107734;28;20196;-70
2022/04/11 07:57:44;;;;;;;2.88;2.30;;;;;;;27.28;29.04;94741.47;5104407;28;20707;-71
2022/04/11 08:00:12;;;;;;;3.55;2.53;;;;;;;27.56;28.57;94742.41;5108557;28;20201;-71
2022/04/11 08:02:39;;;;;;;3.45;2.60;;;;;;;27.71;28.74;94748.66;5108858;28;20193;-70
2022/04/11 08:05:07;;;;;;;3.47;2.90;;;;;;;27.72;28.62;94749.44;5107663;28;20197;-72
2022/04/11 08:07:34;;;;;;;5.00;2.40;;;;;;;27.67;28.29;94755.41;5108988;28;20200;-86
2022/04/11 08:10:01;;;;;;;4.60;2.17;;;;;;;27.46;28.74;94746.50;5107468;28;20188;-88
2022/04/11 08:12:29;;;;;;;5.38;2.70;;;;;;;27.19;28.07;94753.44;5110988;28;20575;-88
2022/04/11 08:14:56;;;;;;;2.70;2.50;;;;;;;26.84;28.34;94759.69;5106847;28;20220;-80
2022/04/11 08:17:23;;;;;;;2.83;2.40;;;;;;;26.47;28.21;94767.97;5107717;28;20185;-83
2022/04/11 08:19:50;;;;;;;4.68;2.40;;;;;;;26.14;27.82;94765.22;5107617;28;20693;-74
2022/04/11 08:22:17;;;;;;;2.38;2.15;;;;;;;26.03;27.61;94764.19;5109863;28;20192;-74
2022/04/11 08:24:43;;;;;;;3.13;2.38;;;;;;;26.07;27.91;94764.53;5110060;28;20184;-83
2022/04/11 08:27:10;;;;;;;2.80;2.28;;;;;;;26.14;27.99;94754.72;5112589;28;20185;-89
2022/04/11 08:29:38;;;;;;;3.03;2.30;;;;;;;26.40;27.98;94756.00;5111907;28;20196;-78
2022/04/11 08:32:06;;;;;;;3.38;2.28;;;;;;;26.64;27.59;94765.38;5115170;28;20193;-73
2022/04/11 08:34:33;;;;;;;4.40;2.40;;;;;;;26.73;27.77;94761.34;5117023;28;20228;-85
2022/04/11 08:36:59;;;;;;;2.60;2.40;;;;;;;26.76;27.29;94760.06;5107936;28;20212;-71
2022/04/11 08:39:26;;;;;;;3.22;2.33;;;;;;;26.73;27.30;94752.69;5119826;28;20185;-81
2022/04/11 08:41:59;;;;;;;3.70;2.55;;;;;;;26.76;27.09;94768.72;5118441;28;20195;-71
2022/04/11 08:44:27;;;;;;;3.67;2.40;;;;;;;26.76;26.92;94773.19;5116444;28;20199;-87
2022/04/11 08:46:59;;;;;;;5.03;2.53;;;;;;;26.77;27.07;94770.34;5114074;28;20204;-84
2022/04/11 08:49:28;;;;;;;2.30;2.20;;;;;;;26.85;26.99;94773.59;5111126;28;20185;-86
2022/04/11 08:51:55;;;;;;;6.60;2.90;;;;;;;26.86;26.66;94767.34;5109948;28;20185;-86
2022/04/11 08:54:21;;;;;;;4.65;2.65;;;;;;;26.80;26.79;94776.13;5108361;28;20224;-87
2022/04/11 08:56:48;;;;;;;2.90;2.58;;;;;;;26.67;27.13;94783.25;5107513;28;20204;-83
2022/04/11 08:59:15;;;;;;;4.90;3.03;;;;;;;26.44;27.18;94783.38;5107653;28;20193;-79
2022/04/11 09:01:42;;;;;;;2.95;2.40;;;;;;;26.22;27.37;94772.72;5107709;28;20197;-73
2022/04/11 09:04:10;;;;;;;4.95;2.40;;;;;;;26.04;27.01;94771.06;5107085;28;20201;-79
2022/04/11 09:06:37;;;;;;;2.95;2.63;;;;;;;25.80;26.81;94769.50;5103943;28;20181;-75
2022/04/11 09:09:04;;;;;;;4.50;2.00;;;;;;;25.48;27.15;94769.84;5106247;28;20193;-72
2022/04/11 09:11:33;;;;;;;2.90;2.30;;;;;;;25.13;27.11;94773.25;5106470;28;20197;-73
2022/04/11 09:14:02;;;;;;;5.82;2.80;;;;;;;24.77;26.81;94774.16;5105675;28;20474;-73
2022/04/11 09:16:29;;;;;;;4.00;2.58;;;;;;;24.45;26.97;94768.38;5106580;28;20201;-83
2022/04/11 09:18:57;;;;;;;3.97;2.28;;;;;;;24.11;27.08;94769.78;5106582;28;20208;-79
2022/04/11 09:21:25;;;;;;;2.85;2.45;;;;;;;23.86;27.34;94783.72;5105628;28;20632;-85
2022/04/11 09:24:17;;;;;;;2.53;2.30;;;;;;;23.60;27.52;94784.78;5101022;28;20204;-75
2022/04/11 09:26:44;;;;;;;5.85;2.50;;;;;;;23.46;27.95;94778.88;5104586;28;20660;-81
2022/04/11 09:29:11;;;;;;;2.75;2.53;;;;;;;23.44;28.04;94778.28;5107255;28;20189;-83
2022/04/11 09:31:37;;;;;;;4.35;2.65;;;;;;;23.47;28.21;94774.47;5104793;28;20226;-84
2022/04/11 09:34:15;;;;;;;2.95;2.65;;;;;;;23.47;27.95;94777.06;5105899;28;20220;-85
2022/04/11 09:36:48;;;;;;;3.25;2.63;;;;;;;23.31;28.32;94778.41;5111104;28;20616;-82
2022/04/11 09:39:15;;;;;;;4.47;2.58;;;;;;;23.02;28.14;94782.50;5110907;28;20200;-78
2022/04/11 09:41:43;;;;;;;3.33;2.85;;;;;;;22.71;28.32;94762.41;5111998;28;20638;-81
2022/04/11 09:44:24;;;;;;;2.65;2.28;;;;;;;22.41;28.51;94760.41;5109116;28;20974;-71
2022/04/11 09:46:51;;;;;;;6.10;2.72;;;;;;;22.21;28.69;94759.69;5109587;28;20207;-80
2022/04/11 09:49:19;;;;;;;3.65;2.58;;;;;;;22.09;28.82;94758.72;5109751;28;20193;-79
2022/04/11 09:52:07;;;;;;;3.70;2.25;;;;;;;22.00;29.13;94771.97;5110889;28;20192;-82
2022/04/11 09:54:35;;;;;;;1.98;1.88;;;;;;;21.95;29.42;94777.00;5109356;28;20209;-81
2022/04/11 09:57:04;;;;;;;2.97;2.55;;;;;;;21.77;29.11;94763.84;5110564;28;20286;-87
2022/04/11 09:59:31;;;;;;;3.40;2.55;;;;;;;21.51;29.34;94759.50;5112722;28;20197;-80
2022/04/11 10:01:58;;;;;;;2.88;2.55;;;;;;;21.37;29.68;94763.91;5114649;28;20193;-77
2022/04/11 10:04:26;;;;;;;5.18;2.55;;;;;;;21.30;29.62;94758.69;5110453;28;20212;-84
2022/04/11 10:06:53;;;;;;;2.60;2.27;;;;;;;21.25;29.61;94760.31;5109914;28;20193;-73
2022/04/11 10:09:23;;;;;;;2.37;2.17;;;;;;;21.30;29.74;94763.91;5104068;28;20190;-71
2022/04/11 10:11:51;;;;;;;5.40;2.30;;;;;;;21.38;29.70;94759.53;5109227;28;20212;-78
2022/04/11 10:14:23;;;;;;;2.83;2.60;;;;;;;21.39;29.66;94755.91;5106452;28;20201;-69
2022/04/11 10:16:52;;;;;;;2.45;2.25;;;;;;;21.53;29.79;94755.69;5109185;28;20201;-72
2022/04/11 10:19:24;;;;;;;2.57;2.30;;;;;;;21.51;29.81;94764.72;5108238;28;20276;-75
2022/04/11 10:21:52;;;;;;;2.73;2.53;;;;;;;21.41;29.88;94759.09;5109300;28;20205;-72
2022/04/11 10:24:33;;;;;;;5.87;2.73;;;;;;;21.14;30.04;94745.31;5109002;28;20189;-73
2022/04/11 10:27:15;;;;;;;3.43;2.70;;;;;;;21.07;29.98;94768.72;5109525;28;20199;-78
2022/04/11 10:29:42;;;;;;;4.73;2.87;;;;;;;20.86;30.13;94769.72;5108344;28;20196;-73
2022/04/11 10:32:10;;;;;;;4.40;2.40;;;;;;;20.66;30.18;94759.28;5109816;28;20197;-79
2022/04/11 10:34:52;;;;;;;4.87;2.90;;;;;;;20.51;30.01;94756.88;5107770;28;20256;-78
2022/04/11 10:37:21;;;;;;;3.27;2.80;;;;;;;20.52;30.14;94762.88;5110149;28;20228;-78
2022/04/11 10:39:50;;;;;;;4.97;2.30;;;;;;;20.48;30.05;94765.06;5108391;28;20254;-79
2022/04/11 10:42:22;;;;;;;2.90;2.60;;;;;;;20.43;30.32;94762.25;5107685;28;20200;-84
2022/04/11 10:44:51;;;;;;;2.70;2.50;;;;;;;20.46;30.24;94745.44;5104116;28;20185;-73
2022/04/11 10:47:32;;;;;;;2.67;2.47;;;;;;;20.56;30.13;94752.91;5108128;28;20258;-70
2022/04/11 10:50:25;;;;;;;2.50;2.30;;;;;;;20.49;30.03;94768.47;5108884;28;20200;-78
2022/04/11 10:52:54;;;;;;;3.07;2.30;;;;;;;20.42;30.18;94759.81;5107078;28;20200;-80
2022/04/11 10:55:25;;;;;;;3.27;2.50;;;;;;;20.35;30.13;94762.41;5109700;28;20610;-77
2022/04/11 10:57:54;;;;;;;6.03;2.30;;;;;;;20.27;30.18;94765.97;5108408;28;20797;-73
2022/04/11 11:00:23;;;;;;;3.93;2.87;;;;;;;20.20;30.41;94769.53;5109131;28;20201;-72
2022/04/11 11:03:04;;;;;;;2.63;2.43;;;;;;;20.14;30.51;94767.75;5105975;28;20185;-71
2022/04/11 11:05:35;;;;;;;2.87;2.50;;;;;;;20.03;30.68;94750.91;5105584;28;20189;-88
2022/04/11 11:08:33;;;;;;;2.63;2.33;;;;;;;20.13;30.55;94766.16;5120595;28;20185;-90
2022/04/11 11:11:20;;;;;;;2.33;2.10;;;;;;;20.18;30.52;94755.97;5113239;28;20227;-78
2022/04/11 11:13:48;;;;;;;2.97;2.37;;;;;;;20.30;30.39;94767.41;5105987;28;20204;-92
2022/04/11 11:16:36;;;;;;;2.37;2.20;;;;;;;20.43;30.16;94774.44;5108564;28;20224;-80
2022/04/11 11:19:13;;;;;;;2.43;2.20;;;;;;;20.44;30.08;94766.44;5107277;28;20212;-74
2022/04/11 11:22:00;;;;;;;2.87;2.30;;;;;;;20.43;29.96;94761.44;5104516;28;20265;-82
2022/04/11 11:24:27;;;;;;;2.83;2.53;;;;;;;20.48;29.84;94772.88;5106294;28;20206;-78
2022/04/11 11:26:57;;;;;;;2.60;2.30;;;;;;;20.55;29.73;94754.66;5107808;28;20193;-80
2022/04/11 11:29:25;;;;;;;3.33;2.60;;;;;;;20.67;29.42;94767.88;5107701;28;20193;-78
2022/04/11 11:31:54;;;;;;;3.33;2.50;;;;;;;20.68;29.53;94751.28;5111389;28;20571;-76
2022/04/11 11:34:22;;;;;;;3.33;2.47;;;;;;;20.59;29.64;94750.69;5110578;28;20293;-88
2022/04/11 11:36:51;;;;;;;2.53;2.33;;;;;;;20.47;29.68;94760.06;5109479;28;20204;-85
2022/04/11 11:39:21;;;;;;;2.50;2.30;;;;;;;20.31;29.69;94769.00;5104906;28;20197;-79